sensor_id;sensor_type;location;lat;lon;timestamp;temperature;humidity
43530;DHT22;55654;50.966;6.878;2023-09-19T00:00:23;15.70;99.90
43530;DHT22;55654;50.966;6.878;2023-09-19T00:02:55;15.70;99.90
43530;DHT22;55654;50.966;6.878;2023-09-19T00:05:25;15.70;99.90
43530;DHT22;55654;50.966;6.878;2023-09-19T00:07:56;15.70;99.90
43530;DHT22;55654;50.966;6.878;2023-09-19T00:10:24;15.70;99.90
43530;DHT22;55654;50.966;6.878;2023-09-19T00:12:59;15.70;99.90
43530;DHT22;55654;50.966;6.878;2023-09-19T00:15:26;15.70;99.90
43530;DHT22;55654;50.966;6.878;2023-09-19T00:17:54;15.70;99.90
43530;DHT22;55654;50.966;6.878;2023-09-19T00:20:23;15.70;99.90
43530;DHT22;55654;50.966;6.878;2023-09-19T00:22:51;15.70;99.90
43530;DHT22;55654;50.966;6.878;2023-09-19T00:25:23;15.60;99.90
43530;DHT22;55654;50.966;6.878;2023-09-19T00:27:48;15.70;99.90
43530;DHT22;55654;50.966;6.878;2023-09-19T00:30:16;15.70;99.90
43530;DHT22;55654;50.966;6.878;2023-09-19T00:32:47;15.60;99.90
43530;DHT22;55654;50.966;6.878;2023-09-19T00:35:15;15.60;99.90
43530;DHT22;55654;50.966;6.878;2023-09-19T00:37:41;15.60;99.90
43530;DHT22;55654;50.966;6.878;2023-09-19T00:40:08;15.60;99.90
43530;DHT22;55654;50.966;6.878;2023-09-19T00:42:48;15.60;99.90
43530;DHT22;55654;50.966;6.878;2023-09-19T00:45:15;15.60;99.90
43530;DHT22;55654;50.966;6.878;2023-09-19T00:47:50;15.50;99.90
43530;DHT22;55654;50.966;6.878;2023-09-19T00:50:23;15.50;99.90
43530;DHT22;55654;50.966;6.878;2023-09-19T00:52:55;15.50;99.90
43530;DHT22;55654;50.966;6.878;2023-09-19T00:55:25;15.50;99.90
43530;DHT22;55654;50.966;6.878;2023-09-19T00:57:56;15.50;99.90
43530;DHT22;55654;50.966;6.878;2023-09-19T01:00:24;15.50;99.90
43530;DHT22;55654;50.966;6.878;2023-09-19T01:02:50;15.50;99.90
43530;DHT22;55654;50.966;6.878;2023-09-19T01:05:15;15.50;99.90
43530;DHT22;55654;50.966;6.878;2023-09-19T01:07:42;15.50;99.90
43530;DHT22;55654;50.966;6.878;2023-09-19T01:10:16;15.50;99.90
43530;DHT22;55654;50.966;6.878;2023-09-19T01:13:09;15.60;99.90
43530;DHT22;55654;50.966;6.878;2023-09-19T01:15:38;15.60;99.90
43530;DHT22;55654;50.966;6.878;2023-09-19T01:30:06;15.70;99.90
43530;DHT22;55654;50.966;6.878;2023-09-19T01:32:33;15.70;99.90
43530;DHT22;55654;50.966;6.878;2023-09-19T01:35:03;15.70;99.90
43530;DHT22;55654;50.966;6.878;2023-09-19T01:37:32;15.60;99.90
43530;DHT22;55654;50.966;6.878;2023-09-19T01:40:08;15.60;99.90
43530;DHT22;55654;50.966;6.878;2023-09-19T01:45:58;15.60;99.90
43530;DHT22;55654;50.966;6.878;2023-09-19T01:48:42;15.60;99.90
43530;DHT22;55654;50.966;6.878;2023-09-19T01:51:15;15.60;99.90
43530;DHT22;55654;50.966;6.878;2023-09-19T01:56:24;15.60;99.90
43530;DHT22;55654;50.966;6.878;2023-09-19T01:58:56;15.60;99.90
43530;DHT22;55654;50.966;6.878;2023-09-19T02:01:25;15.70;99.90
43530;DHT22;55654;50.966;6.878;2023-09-19T02:03:52;15.80;99.90
43530;DHT22;55654;50.966;6.878;2023-09-19T02:06:19;15.80;99.90
43530;DHT22;55654;50.966;6.878;2023-09-19T02:08:46;15.70;99.90
43530;DHT22;55654;50.966;6.878;2023-09-19T02:11:13;15.70;99.90
43530;DHT22;55654;50.966;6.878;2023-09-19T02:13:38;15.70;99.90
43530;DHT22;55654;50.966;6.878;2023-09-19T02:16:06;15.70;99.90
43530;DHT22;55654;50.966;6.878;2023-09-19T02:18:35;15.70;99.90
43530;DHT22;55654;50.966;6.878;2023-09-19T02:21:04;15.70;99.90
43530;DHT22;55654;50.966;6.878;2023-09-19T02:23:32;15.70;99.90
43530;DHT22;55654;50.966;6.878;2023-09-19T02:26:01;15.70;99.90
43530;DHT22;55654;50.966;6.878;2023-09-19T02:28:32;15.70;99.90
43530;DHT22;55654;50.966;6.878;2023-09-19T02:30:58;15.60;99.90
43530;DHT22;55654;50.966;6.878;2023-09-19T02:33:26;15.60;99.90
43530;DHT22;55654;50.966;6.878;2023-09-19T02:35:55;15.60;99.90
43530;DHT22;55654;50.966;6.878;2023-09-19T02:38:25;15.60;99.90
43530;DHT22;55654;50.966;6.878;2023-09-19T02:40:54;15.60;99.90
43530;DHT22;55654;50.966;6.878;2023-09-19T02:43:21;15.60;99.90
43530;DHT22;55654;50.966;6.878;2023-09-19T02:45:47;15.50;99.90
43530;DHT22;55654;50.966;6.878;2023-09-19T02:48:15;15.50;99.90
43530;DHT22;55654;50.966;6.878;2023-09-19T02:50:42;15.50;99.90
43530;DHT22;55654;50.966;6.878;2023-09-19T02:53:08;15.50;99.90
43530;DHT22;55654;50.966;6.878;2023-09-19T02:55:33;15.40;99.90
43530;DHT22;55654;50.966;6.878;2023-09-19T02:58:00;15.40;99.90
43530;DHT22;55654;50.966;6.878;2023-09-19T03:00:32;15.40;99.90
43530;DHT22;55654;50.966;6.878;2023-09-19T03:03:01;15.40;99.90
43530;DHT22;55654;50.966;6.878;2023-09-19T03:05:28;15.40;99.90
43530;DHT22;55654;50.966;6.878;2023-09-19T03:07:57;15.40;99.90
43530;DHT22;55654;50.966;6.878;2023-09-19T03:10:25;15.30;99.90
43530;DHT22;55654;50.966;6.878;2023-09-19T03:12:51;15.30;99.90
43530;DHT22;55654;50.966;6.878;2023-09-19T03:15:17;15.30;99.90
43530;DHT22;55654;50.966;6.878;2023-09-19T03:17:47;15.30;99.90
43530;DHT22;55654;50.966;6.878;2023-09-19T03:20:13;15.30;99.90
43530;DHT22;55654;50.966;6.878;2023-09-19T03:22:45;15.20;99.90
43530;DHT22;55654;50.966;6.878;2023-09-19T03:25:11;15.20;99.90
43530;DHT22;55654;50.966;6.878;2023-09-19T03:27:39;15.20;99.90
43530;DHT22;55654;50.966;6.878;2023-09-19T03:30:07;15.20;99.90
43530;DHT22;55654;50.966;6.878;2023-09-19T03:32:37;15.20;99.90
43530;DHT22;55654;50.966;6.878;2023-09-19T03:35:06;15.10;99.90
43530;DHT22;55654;50.966;6.878;2023-09-19T03:37:40;15.10;99.90
43530;DHT22;55654;50.966;6.878;2023-09-19T03:40:09;15.10;99.90
43530;DHT22;55654;50.966;6.878;2023-09-19T03:42:40;15.10;99.90
43530;DHT22;55654;50.966;6.878;2023-09-19T03:45:09;15.10;99.90
43530;DHT22;55654;50.966;6.878;2023-09-19T03:47:44;15.00;99.90
43530;DHT22;55654;50.966;6.878;2023-09-19T03:50:15;15.00;99.90
43530;DHT22;55654;50.966;6.878;2023-09-19T03:52:43;15.00;99.90
43530;DHT22;55654;50.966;6.878;2023-09-19T03:55:09;15.00;99.90
43530;DHT22;55654;50.966;6.878;2023-09-19T03:57:37;15.00;99.90
43530;DHT22;55654;50.966;6.878;2023-09-19T04:00:04;15.00;99.90
43530;DHT22;55654;50.966;6.878;2023-09-19T04:02:40;15.00;99.90
43530;DHT22;55654;50.966;6.878;2023-09-19T04:05:06;15.00;99.90
43530;DHT22;55654;50.966;6.878;2023-09-19T04:07:32;15.00;99.90
43530;DHT22;55654;50.966;6.878;2023-09-19T04:10:00;15.00;99.90
43530;DHT22;55654;50.966;6.878;2023-09-19T04:12:30;15.00;99.90
43530;DHT22;55654;50.966;6.878;2023-09-19T04:14:58;14.90;99.90
43530;DHT22;55654;50.966;6.878;2023-09-19T04:17:24;14.90;99.90
43530;DHT22;55654;50.966;6.878;2023-09-19T04:19:49;14.90;99.90
43530;DHT22;55654;50.966;6.878;2023-09-19T04:22:18;14.90;99.90
43530;DHT22;55654;50.966;6.878;2023-09-19T04:24:44;14.90;99.90
43530;DHT22;55654;50.966;6.878;2023-09-19T04:27:10;14.90;99.90
43530;DHT22;55654;50.966;6.878;2023-09-19T04:29:39;14.90;99.90
43530;DHT22;55654;50.966;6.878;2023-09-19T04:32:07;14.90;99.90
43530;DHT22;55654;50.966;6.878;2023-09-19T04:34:35;14.90;99.90
43530;DHT22;55654;50.966;6.878;2023-09-19T04:37:01;14.80;99.90
43530;DHT22;55654;50.966;6.878;2023-09-19T04:39:29;14.80;99.90
43530;DHT22;55654;50.966;6.878;2023-09-19T04:42:00;14.80;99.90
43530;DHT22;55654;50.966;6.878;2023-09-19T04:44:25;14.80;99.90
43530;DHT22;55654;50.966;6.878;2023-09-19T04:46:51;14.80;99.90
43530;DHT22;55654;50.966;6.878;2023-09-19T04:49:16;14.80;99.90
43530;DHT22;55654;50.966;6.878;2023-09-19T04:51:44;14.80;99.90
43530;DHT22;55654;50.966;6.878;2023-09-19T04:54:12;14.80;99.90
43530;DHT22;55654;50.966;6.878;2023-09-19T04:56:41;14.80;99.90
43530;DHT22;55654;50.966;6.878;2023-09-19T04:59:11;14.80;99.90
43530;DHT22;55654;50.966;6.878;2023-09-19T05:01:41;14.80;99.90
43530;DHT22;55654;50.966;6.878;2023-09-19T05:04:07;14.70;99.90
43530;DHT22;55654;50.966;6.878;2023-09-19T05:06:32;14.70;99.90
43530;DHT22;55654;50.966;6.878;2023-09-19T05:08:59;14.70;99.90
43530;DHT22;55654;50.966;6.878;2023-09-19T05:11:25;14.70;99.90
43530;DHT22;55654;50.966;6.878;2023-09-19T05:13:51;14.70;99.90
43530;DHT22;55654;50.966;6.878;2023-09-19T05:16:20;14.70;99.90
43530;DHT22;55654;50.966;6.878;2023-09-19T05:18:46;14.60;99.90
43530;DHT22;55654;50.966;6.878;2023-09-19T05:21:11;14.70;99.90
43530;DHT22;55654;50.966;6.878;2023-09-19T05:23:37;14.70;99.90
43530;DHT22;55654;50.966;6.878;2023-09-19T05:26:06;14.70;99.90
43530;DHT22;55654;50.966;6.878;2023-09-19T05:28:31;14.70;99.90
43530;DHT22;55654;50.966;6.878;2023-09-19T05:31:01;14.60;99.90
43530;DHT22;55654;50.966;6.878;2023-09-19T05:33:30;14.70;99.90
43530;DHT22;55654;50.966;6.878;2023-09-19T05:35:58;14.70;99.90
43530;DHT22;55654;50.966;6.878;2023-09-19T05:38:26;14.70;99.90
43530;DHT22;55654;50.966;6.878;2023-09-19T05:40:53;14.70;99.90
43530;DHT22;55654;50.966;6.878;2023-09-19T05:43:19;14.70;99.90
43530;DHT22;55654;50.966;6.878;2023-09-19T05:45:44;14.70;99.90
43530;DHT22;55654;50.966;6.878;2023-09-19T05:48:14;14.70;99.90
43530;DHT22;55654;50.966;6.878;2023-09-19T05:50:42;14.80;99.90
43530;DHT22;55654;50.966;6.878;2023-09-19T05:53:08;14.80;99.90
43530;DHT22;55654;50.966;6.878;2023-09-19T05:55:40;14.80;99.90
43530;DHT22;55654;50.966;6.878;2023-09-19T05:58:10;14.90;99.90
43530;DHT22;55654;50.966;6.878;2023-09-19T06:00:39;14.90;99.90
43530;DHT22;55654;50.966;6.878;2023-09-19T06:03:09;14.90;99.90
43530;DHT22;55654;50.966;6.878;2023-09-19T06:05:37;14.90;99.90
43530;DHT22;55654;50.966;6.878;2023-09-19T06:08:06;14.90;99.90
43530;DHT22;55654;50.966;6.878;2023-09-19T06:10:33;14.90;99.90
43530;DHT22;55654;50.966;6.878;2023-09-19T06:13:00;14.90;99.90
43530;DHT22;55654;50.966;6.878;2023-09-19T06:15:25;14.90;99.90
43530;DHT22;55654;50.966;6.878;2023-09-19T06:17:55;14.90;99.90
43530;DHT22;55654;50.966;6.878;2023-09-19T06:20:22;14.90;99.90
43530;DHT22;55654;50.966;6.878;2023-09-19T06:22:49;14.90;99.90
43530;DHT22;55654;50.966;6.878;2023-09-19T06:25:15;14.90;99.90
43530;DHT22;55654;50.966;6.878;2023-09-19T06:27:47;15.00;99.90
43530;DHT22;55654;50.966;6.878;2023-09-19T06:30:13;15.00;99.90
43530;DHT22;55654;50.966;6.878;2023-09-19T06:32:42;15.00;99.90
43530;DHT22;55654;50.966;6.878;2023-09-19T06:35:15;15.00;99.90
43530;DHT22;55654;50.966;6.878;2023-09-19T06:37:42;15.00;99.90
43530;DHT22;55654;50.966;6.878;2023-09-19T06:40:11;15.00;99.90
43530;DHT22;55654;50.966;6.878;2023-09-19T06:45:09;15.10;99.90
43530;DHT22;55654;50.966;6.878;2023-09-19T06:47:39;15.10;99.90
43530;DHT22;55654;50.966;6.878;2023-09-19T06:50:05;15.10;99.90
43530;DHT22;55654;50.966;6.878;2023-09-19T06:52:32;15.10;99.90
43530;DHT22;55654;50.966;6.878;2023-09-19T06:54:58;15.20;99.90
43530;DHT22;55654;50.966;6.878;2023-09-19T06:57:24;15.20;99.90
43530;DHT22;55654;50.966;6.878;2023-09-19T06:59:52;15.20;99.90
43530;DHT22;55654;50.966;6.878;2023-09-19T07:02:20;15.30;99.90
43530;DHT22;55654;50.966;6.878;2023-09-19T07:04:47;15.30;99.90
43530;DHT22;55654;50.966;6.878;2023-09-19T07:07:15;15.30;99.90
43530;DHT22;55654;50.966;6.878;2023-09-19T07:09:43;15.30;99.90
43530;DHT22;55654;50.966;6.878;2023-09-19T07:12:14;15.40;99.90
43530;DHT22;55654;50.966;6.878;2023-09-19T07:14:39;15.40;99.90
43530;DHT22;55654;50.966;6.878;2023-09-19T07:17:12;15.40;99.90
43530;DHT22;55654;50.966;6.878;2023-09-19T07:19:46;15.50;99.90
43530;DHT22;55654;50.966;6.878;2023-09-19T07:22:16;15.50;99.90
43530;DHT22;55654;50.966;6.878;2023-09-19T07:24:41;15.50;99.90
43530;DHT22;55654;50.966;6.878;2023-09-19T07:27:10;15.60;99.90
43530;DHT22;55654;50.966;6.878;2023-09-19T07:29:35;15.60;99.90
43530;DHT22;55654;50.966;6.878;2023-09-19T07:32:01;15.60;99.90
43530;DHT22;55654;50.966;6.878;2023-09-19T07:34:27;15.60;99.90
43530;DHT22;55654;50.966;6.878;2023-09-19T07:36:54;15.70;99.90
43530;DHT22;55654;50.966;6.878;2023-09-19T07:39:20;15.70;99.90
43530;DHT22;55654;50.966;6.878;2023-09-19T07:41:45;15.70;99.90
43530;DHT22;55654;50.966;6.878;2023-09-19T07:44:11;15.70;99.90
43530;DHT22;55654;50.966;6.878;2023-09-19T07:46:37;15.80;99.90
43530;DHT22;55654;50.966;6.878;2023-09-19T07:49:03;15.80;99.90
43530;DHT22;55654;50.966;6.878;2023-09-19T07:51:31;15.90;99.90
43530;DHT22;55654;50.966;6.878;2023-09-19T07:53:58;16.00;99.90
43530;DHT22;55654;50.966;6.878;2023-09-19T07:56:26;16.10;99.90
43530;DHT22;55654;50.966;6.878;2023-09-19T07:58:55;16.10;99.90
43530;DHT22;55654;50.966;6.878;2023-09-19T08:01:25;16.20;99.90
43530;DHT22;55654;50.966;6.878;2023-09-19T08:03:52;16.20;99.90
43530;DHT22;55654;50.966;6.878;2023-09-19T08:06:20;16.30;99.90
43530;DHT22;55654;50.966;6.878;2023-09-19T08:08:46;16.30;99.90
43530;DHT22;55654;50.966;6.878;2023-09-19T08:11:18;16.40;99.90
43530;DHT22;55654;50.966;6.878;2023-09-19T08:13:46;16.40;99.90
43530;DHT22;55654;50.966;6.878;2023-09-19T08:16:15;16.40;99.90
43530;DHT22;55654;50.966;6.878;2023-09-19T08:18:41;16.50;99.90
43530;DHT22;55654;50.966;6.878;2023-09-19T08:21:07;16.50;99.90
43530;DHT22;55654;50.966;6.878;2023-09-19T08:23:38;16.60;99.90
43530;DHT22;55654;50.966;6.878;2023-09-19T08:26:04;16.60;99.90
43530;DHT22;55654;50.966;6.878;2023-09-19T08:28:36;16.60;99.90
43530;DHT22;55654;50.966;6.878;2023-09-19T08:31:07;16.70;99.90
43530;DHT22;55654;50.966;6.878;2023-09-19T08:33:43;16.70;99.90
43530;DHT22;55654;50.966;6.878;2023-09-19T08:36:10;16.80;99.90
43530;DHT22;55654;50.966;6.878;2023-09-19T08:38:39;16.80;99.90
43530;DHT22;55654;50.966;6.878;2023-09-19T08:41:08;16.90;99.90
43530;DHT22;55654;50.966;6.878;2023-09-19T08:43:34;17.00;99.90
43530;DHT22;55654;50.966;6.878;2023-09-19T08:48:32;17.10;99.90
43530;DHT22;55654;50.966;6.878;2023-09-19T08:51:12;17.10;99.90
43530;DHT22;55654;50.966;6.878;2023-09-19T08:53:47;17.20;99.90
43530;DHT22;55654;50.966;6.878;2023-09-19T08:56:16;17.20;99.90
43530;DHT22;55654;50.966;6.878;2023-09-19T08:58:58;17.20;99.90
43530;DHT22;55654;50.966;6.878;2023-09-19T09:01:31;17.20;99.90
43530;DHT22;55654;50.966;6.878;2023-09-19T09:04:01;17.20;99.90
43530;DHT22;55654;50.966;6.878;2023-09-19T09:06:27;17.20;99.90
43530;DHT22;55654;50.966;6.878;2023-09-19T09:09:00;17.20;99.90
43530;DHT22;55654;50.966;6.878;2023-09-19T09:11:28;17.30;99.90
43530;DHT22;55654;50.966;6.878;2023-09-19T09:13:54;17.30;99.90
43530;DHT22;55654;50.966;6.878;2023-09-19T09:16:22;17.40;99.90
43530;DHT22;55654;50.966;6.878;2023-09-19T09:18:53;17.50;99.90
43530;DHT22;55654;50.966;6.878;2023-09-19T09:21:26;17.50;99.90
43530;DHT22;55654;50.966;6.878;2023-09-19T09:23:54;17.60;99.90
43530;DHT22;55654;50.966;6.878;2023-09-19T09:29:04;17.60;99.90
43530;DHT22;55654;50.966;6.878;2023-09-19T09:31:32;17.70;99.90
43530;DHT22;55654;50.966;6.878;2023-09-19T09:34:00;17.70;99.90
43530;DHT22;55654;50.966;6.878;2023-09-19T09:36:40;17.70;99.90
43530;DHT22;55654;50.966;6.878;2023-09-19T09:39:07;17.80;99.90
43530;DHT22;55654;50.966;6.878;2023-09-19T09:41:50;17.80;99.90
43530;DHT22;55654;50.966;6.878;2023-09-19T09:44:17;17.90;99.90
43530;DHT22;55654;50.966;6.878;2023-09-19T09:46:47;18.00;99.90
43530;DHT22;55654;50.966;6.878;2023-09-19T09:49:26;18.10;99.90
43530;DHT22;55654;50.966;6.878;2023-09-19T09:52:00;18.10;99.90
43530;DHT22;55654;50.966;6.878;2023-09-19T09:54:29;18.10;99.90
43530;DHT22;55654;50.966;6.878;2023-09-19T09:57:09;18.10;99.90
43530;DHT22;55654;50.966;6.878;2023-09-19T09:59:59;18.10;99.90
43530;DHT22;55654;50.966;6.878;2023-09-19T10:02:41;18.10;99.90
43530;DHT22;55654;50.966;6.878;2023-09-19T10:05:17;18.10;99.90
43530;DHT22;55654;50.966;6.878;2023-09-19T10:07:46;18.20;99.90
43530;DHT22;55654;50.966;6.878;2023-09-19T10:13:08;18.40;99.90
43530;DHT22;55654;50.966;6.878;2023-09-19T10:15:37;18.40;99.90
43530;DHT22;55654;50.966;6.878;2023-09-19T10:18:07;18.40;99.90
43530;DHT22;55654;50.966;6.878;2023-09-19T10:20:37;18.60;99.90
43530;DHT22;55654;50.966;6.878;2023-09-19T10:23:09;18.60;99.90
43530;DHT22;55654;50.966;6.878;2023-09-19T10:25:40;18.60;99.90
43530;DHT22;55654;50.966;6.878;2023-09-19T10:28:11;18.50;99.90
43530;DHT22;55654;50.966;6.878;2023-09-19T10:30:38;18.60;99.90
43530;DHT22;55654;50.966;6.878;2023-09-19T10:33:10;18.60;99.90
43530;DHT22;55654;50.966;6.878;2023-09-19T10:35:39;18.70;99.90
43530;DHT22;55654;50.966;6.878;2023-09-19T10:38:10;18.60;99.90
43530;DHT22;55654;50.966;6.878;2023-09-19T10:40:38;18.70;99.90
43530;DHT22;55654;50.966;6.878;2023-09-19T10:43:22;18.80;99.90
43530;DHT22;55654;50.966;6.878;2023-09-19T10:45:51;18.90;99.90
43530;DHT22;55654;50.966;6.878;2023-09-19T10:48:19;18.90;99.90
43530;DHT22;55654;50.966;6.878;2023-09-19T10:50:52;18.90;99.90
43530;DHT22;55654;50.966;6.878;2023-09-19T10:53:23;19.00;99.90
43530;DHT22;55654;50.966;6.878;2023-09-19T10:55:55;19.00;99.90
43530;DHT22;55654;50.966;6.878;2023-09-19T10:58:27;19.00;99.90
43530;DHT22;55654;50.966;6.878;2023-09-19T11:00:57;19.10;99.90
43530;DHT22;55654;50.966;6.878;2023-09-19T11:03:38;19.20;99.90
43530;DHT22;55654;50.966;6.878;2023-09-19T11:06:15;19.40;99.90
43530;DHT22;55654;50.966;6.878;2023-09-19T11:09:03;19.40;99.90
43530;DHT22;55654;50.966;6.878;2023-09-19T11:11:48;19.40;99.90
43530;DHT22;55654;50.966;6.878;2023-09-19T11:30:34;19.50;99.90
43530;DHT22;55654;50.966;6.878;2023-09-19T11:33:26;19.40;99.90
43530;DHT22;55654;50.966;6.878;2023-09-19T11:36:14;19.30;99.90
43530;DHT22;55654;50.966;6.878;2023-09-19T11:46:27;19.40;99.90
43530;DHT22;55654;50.966;6.878;2023-09-19T11:48:53;19.40;99.90
43530;DHT22;55654;50.966;6.878;2023-09-19T11:51:20;19.40;99.90
43530;DHT22;55654;50.966;6.878;2023-09-19T11:53:57;19.40;99.90
43530;DHT22;55654;50.966;6.878;2023-09-19T11:56:28;19.40;99.90
43530;DHT22;55654;50.966;6.878;2023-09-19T11:58:54;19.40;99.90
43530;DHT22;55654;50.966;6.878;2023-09-19T12:01:32;19.40;99.90
43530;DHT22;55654;50.966;6.878;2023-09-19T12:04:00;19.40;99.90
43530;DHT22;55654;50.966;6.878;2023-09-19T12:06:26;19.50;99.90
43530;DHT22;55654;50.966;6.878;2023-09-19T12:08:55;19.50;99.90
43530;DHT22;55654;50.966;6.878;2023-09-19T12:11:30;19.60;99.90
43530;DHT22;55654;50.966;6.878;2023-09-19T12:14:02;19.70;99.90
43530;DHT22;55654;50.966;6.878;2023-09-19T12:16:28;19.70;99.90
43530;DHT22;55654;50.966;6.878;2023-09-19T12:18:56;19.70;99.90
43530;DHT22;55654;50.966;6.878;2023-09-19T12:21:30;19.80;99.90
43530;DHT22;55654;50.966;6.878;2023-09-19T12:27:01;19.80;99.90
43530;DHT22;55654;50.966;6.878;2023-09-19T12:29:29;19.90;99.90
43530;DHT22;55654;50.966;6.878;2023-09-19T12:32:01;19.90;99.90
43530;DHT22;55654;50.966;6.878;2023-09-19T12:34:30;19.90;99.90
43530;DHT22;55654;50.966;6.878;2023-09-19T12:37:10;19.90;99.90
43530;DHT22;55654;50.966;6.878;2023-09-19T12:39:42;20.00;99.90
43530;DHT22;55654;50.966;6.878;2023-09-19T12:42:14;20.10;99.90
43530;DHT22;55654;50.966;6.878;2023-09-19T12:44:46;20.20;99.90
43530;DHT22;55654;50.966;6.878;2023-09-19T12:47:17;20.10;99.90
43530;DHT22;55654;50.966;6.878;2023-09-19T12:50:17;20.20;99.90
43530;DHT22;55654;50.966;6.878;2023-09-19T12:52:50;20.30;99.90
43530;DHT22;55654;50.966;6.878;2023-09-19T12:55:26;20.50;99.90
43530;DHT22;55654;50.966;6.878;2023-09-19T12:58:01;20.60;99.90
43530;DHT22;55654;50.966;6.878;2023-09-19T13:00:41;20.70;99.90
43530;DHT22;55654;50.966;6.878;2023-09-19T13:06:00;20.80;99.90
43530;DHT22;55654;50.966;6.878;2023-09-19T13:08:28;21.00;99.90
43530;DHT22;55654;50.966;6.878;2023-09-19T13:13:46;22.10;98.10
43530;DHT22;55654;50.966;6.878;2023-09-19T13:16:20;22.50;95.80
43530;DHT22;55654;50.966;6.878;2023-09-19T13:18:54;23.30;94.20
43530;DHT22;55654;50.966;6.878;2023-09-19T13:21:34;24.20;93.30
43530;DHT22;55654;50.966;6.878;2023-09-19T13:24:24;25.80;90.70
43530;DHT22;55654;50.966;6.878;2023-09-19T13:26:53;26.50;85.30
43530;DHT22;55654;50.966;6.878;2023-09-19T13:29:19;26.70;82.10
43530;DHT22;55654;50.966;6.878;2023-09-19T13:31:49;26.60;80.00
43530;DHT22;55654;50.966;6.878;2023-09-19T13:34:15;25.70;80.10
43530;DHT22;55654;50.966;6.878;2023-09-19T13:36:42;24.80;82.30
43530;DHT22;55654;50.966;6.878;2023-09-19T13:39:08;23.90;84.20
43530;DHT22;55654;50.966;6.878;2023-09-19T13:41:40;23.20;87.00
43530;DHT22;55654;50.966;6.878;2023-09-19T13:44:08;22.60;88.70
43530;DHT22;55654;50.966;6.878;2023-09-19T13:46:36;22.30;90.00
43530;DHT22;55654;50.966;6.878;2023-09-19T13:49:02;22.00;91.10
43530;DHT22;55654;50.966;6.878;2023-09-19T13:51:30;21.90;91.30
43530;DHT22;55654;50.966;6.878;2023-09-19T13:53:56;21.90;92.10
43530;DHT22;55654;50.966;6.878;2023-09-19T13:56:21;21.90;91.90
43530;DHT22;55654;50.966;6.878;2023-09-19T13:58:50;22.00;92.30
43530;DHT22;55654;50.966;6.878;2023-09-19T14:01:18;22.00;92.60
43530;DHT22;55654;50.966;6.878;2023-09-19T14:03:44;21.90;91.70
43530;DHT22;55654;50.966;6.878;2023-09-19T14:06:17;21.80;92.10
43530;DHT22;55654;50.966;6.878;2023-09-19T14:08:46;21.60;93.10
43530;DHT22;55654;50.966;6.878;2023-09-19T14:11:15;21.50;93.30
43530;DHT22;55654;50.966;6.878;2023-09-19T14:13:41;21.40;93.50
43530;DHT22;55654;50.966;6.878;2023-09-19T14:16:16;21.20;93.90
43530;DHT22;55654;50.966;6.878;2023-09-19T14:18:42;21.10;94.40
43530;DHT22;55654;50.966;6.878;2023-09-19T14:21:08;21.00;94.30
43530;DHT22;55654;50.966;6.878;2023-09-19T14:23:40;20.90;95.20
43530;DHT22;55654;50.966;6.878;2023-09-19T14:26:06;20.90;95.40
43530;DHT22;55654;50.966;6.878;2023-09-19T14:28:33;20.80;95.80
43530;DHT22;55654;50.966;6.878;2023-09-19T14:31:11;20.70;95.80
43530;DHT22;55654;50.966;6.878;2023-09-19T14:33:37;20.70;96.50
43530;DHT22;55654;50.966;6.878;2023-09-19T14:36:06;20.80;97.20
43530;DHT22;55654;50.966;6.878;2023-09-19T14:38:34;20.80;96.90
43530;DHT22;55654;50.966;6.878;2023-09-19T14:41:07;20.80;96.70
43530;DHT22;55654;50.966;6.878;2023-09-19T14:43:32;20.80;97.10
43530;DHT22;55654;50.966;6.878;2023-09-19T14:46:12;20.80;97.40
43530;DHT22;55654;50.966;6.878;2023-09-19T14:48:39;20.90;97.60
43530;DHT22;55654;50.966;6.878;2023-09-19T14:51:06;20.90;96.90
43530;DHT22;55654;50.966;6.878;2023-09-19T14:53:35;20.90;96.60
43530;DHT22;55654;50.966;6.878;2023-09-19T14:56:02;20.90;96.70
43530;DHT22;55654;50.966;6.878;2023-09-19T14:58:31;20.90;97.20
43530;DHT22;55654;50.966;6.878;2023-09-19T15:01:09;20.90;96.90
43530;DHT22;55654;50.966;6.878;2023-09-19T15:03:39;20.90;97.20
43530;DHT22;55654;50.966;6.878;2023-09-19T15:06:06;21.00;97.00
43530;DHT22;55654;50.966;6.878;2023-09-19T15:08:38;20.90;97.40
43530;DHT22;55654;50.966;6.878;2023-09-19T15:11:04;20.90;97.30
43530;DHT22;55654;50.966;6.878;2023-09-19T15:13:31;20.80;97.10
43530;DHT22;55654;50.966;6.878;2023-09-19T15:18:26;20.70;97.50
43530;DHT22;55654;50.966;6.878;2023-09-19T15:20:52;20.60;97.30
43530;DHT22;55654;50.966;6.878;2023-09-19T15:23:17;20.50;97.80
43530;DHT22;55654;50.966;6.878;2023-09-19T15:25:49;20.60;97.80
43530;DHT22;55654;50.966;6.878;2023-09-19T15:28:15;20.50;98.30
43530;DHT22;55654;50.966;6.878;2023-09-19T15:30:41;20.50;98.40
43530;DHT22;55654;50.966;6.878;2023-09-19T15:33:08;20.50;97.90
43530;DHT22;55654;50.966;6.878;2023-09-19T15:35:34;20.50;98.00
43530;DHT22;55654;50.966;6.878;2023-09-19T15:38:02;20.50;98.00
43530;DHT22;55654;50.966;6.878;2023-09-19T15:40:28;20.50;97.90
43530;DHT22;55654;50.966;6.878;2023-09-19T15:42:57;20.50;98.40
43530;DHT22;55654;50.966;6.878;2023-09-19T15:45:26;20.50;98.70
43530;DHT22;55654;50.966;6.878;2023-09-19T15:47:53;20.50;98.90
43530;DHT22;55654;50.966;6.878;2023-09-19T15:50:19;20.50;98.30
43530;DHT22;55654;50.966;6.878;2023-09-19T15:52:52;20.50;98.80
43530;DHT22;55654;50.966;6.878;2023-09-19T15:55:21;20.40;98.80
43530;DHT22;55654;50.966;6.878;2023-09-19T15:57:47;20.50;98.80
43530;DHT22;55654;50.966;6.878;2023-09-19T16:00:13;20.50;98.80
43530;DHT22;55654;50.966;6.878;2023-09-19T16:02:42;20.50;98.50
43530;DHT22;55654;50.966;6.878;2023-09-19T16:05:10;20.40;98.90
43530;DHT22;55654;50.966;6.878;2023-09-19T16:07:37;20.40;98.40
43530;DHT22;55654;50.966;6.878;2023-09-19T16:10:03;20.50;98.70
43530;DHT22;55654;50.966;6.878;2023-09-19T16:12:34;20.50;98.10
43530;DHT22;55654;50.966;6.878;2023-09-19T16:15:00;20.50;98.20
43530;DHT22;55654;50.966;6.878;2023-09-19T16:17:26;20.60;98.30
43530;DHT22;55654;50.966;6.878;2023-09-19T16:19:52;20.60;98.60
43530;DHT22;55654;50.966;6.878;2023-09-19T16:22:20;20.50;98.30
43530;DHT22;55654;50.966;6.878;2023-09-19T16:24:46;20.50;98.30
43530;DHT22;55654;50.966;6.878;2023-09-19T16:27:14;20.40;98.90
43530;DHT22;55654;50.966;6.878;2023-09-19T16:29:43;20.40;99.30
43530;DHT22;55654;50.966;6.878;2023-09-19T16:32:08;20.40;99.90
43530;DHT22;55654;50.966;6.878;2023-09-19T16:34:34;20.40;99.90
43530;DHT22;55654;50.966;6.878;2023-09-19T16:37:02;20.50;99.80
43530;DHT22;55654;50.966;6.878;2023-09-19T16:39:28;20.50;99.60
43530;DHT22;55654;50.966;6.878;2023-09-19T16:41:53;20.60;99.40
43530;DHT22;55654;50.966;6.878;2023-09-19T16:44:24;20.60;99.30
43530;DHT22;55654;50.966;6.878;2023-09-19T16:46:49;20.60;99.60